Terryville, Connecticut
Current Conditions -  °F | °C
As of 1:53 AM on Saturday 25 Oct 2014 (Local Time) from KMMK Reporting Station
Clear Clear  
Wind Chill: 50°   Ceiling: Unl
Heat Index: 50°   Visibility: 10mi
Dew Point: 41°   Wind: 8mph
Humidity: 71%   Direction: 330°NNW
Pressure: 29.8"   Gusts: NA
Location:  41.68°N, 73.01°W
Report Text: KMMK 250553Z AUTO 33007KT 10SM CLR 10/05 A2980 RMK AO2 SLP092 T01000050 10106 20061 51003 TSNO
Loading
Personal Weather Stations






























Interactive Weather Map
Tropical Storm Tracking
New forecast layout! Learn more

10-Day Weather Forecast

Advertisements
Track Severe Weather on mobile